Time;durP1;ratioP1;P1;durP2;ratioP2;P2;SDS_P1;SDS_P2;PMS_P1;PMS_P2;Temp;Humidity;BMP_temperature;BMP_pressure;BME280_temperature;BME280_humidity;BME280_pressure;Samples;Min_cycle;Max_cycle;Signal;HPM_P1;HPM_P2
2024/04/13 00:03:31;;;;;;;13.00;9.40;;;;;;;11.11;74.25;99764.34;226829;1273;22540;-74
2024/04/13 00:08:35;;;;;;;13.90;9.50;;;;;;;11.08;74.19;99762.73;226732;1269;22539;-74
2024/04/13 00:13:37;;;;;;;15.30;10.80;;;;;;;11.04;74.47;99755.80;226839;1273;22570;-73
2024/04/13 00:18:40;;;;;;;16.60;11.90;;;;;;;10.98;74.55;99751.66;226766;1270;22559;-73
2024/04/13 00:23:42;;;;;;;19.40;12.40;;;;;;;10.88;74.90;99748.10;226828;1273;22543;-73
2024/04/13 00:28:44;;;;;;;17.30;11.90;;;;;;;10.81;75.16;99750.03;226700;1273;22529;-74
2024/04/13 00:33:47;;;;;;;20.60;12.30;;;;;;;10.74;75.54;99747.71;226785;1270;25417;-74
2024/04/13 00:38:49;;;;;;;21.40;13.40;;;;;;;10.69;75.57;99746.88;226850;1272;22544;-74
2024/04/13 00:43:51;;;;;;;19.70;14.10;;;;;;;10.64;75.72;99747.65;226746;1269;22551;-74
2024/04/13 00:48:53;;;;;;;17.00;13.00;;;;;;;10.56;75.97;99740.10;226795;1273;22551;-74
2024/04/13 00:53:56;;;;;;;21.60;15.30;;;;;;;10.49;76.32;99743.70;226752;1273;24295;-74
2024/04/13 00:58:58;;;;;;;24.00;17.10;;;;;;;10.41;76.49;99749.05;226744;1269;25282;-75
2024/04/13 01:04:00;;;;;;;25.40;17.50;;;;;;;10.32;76.54;99746.29;226757;1269;22540;-74
2024/04/13 01:09:03;;;;;;;29.60;19.00;;;;;;;10.25;76.66;99743.37;226737;1270;24239;-74
2024/04/13 01:14:05;;;;;;;28.50;17.80;;;;;;;10.17;77.03;99744.16;226749;1269;22579;-74
2024/04/13 01:19:07;;;;;;;28.60;17.70;;;;;;;10.08;77.16;99741.91;226555;1272;242987;-73
2024/04/13 01:24:09;;;;;;;26.00;17.70;;;;;;;10.01;77.39;99740.21;226753;1269;22551;-74
2024/04/13 01:29:11;;;;;;;29.40;19.70;;;;;;;9.97;77.53;99730.98;226740;1272;22597;-74
2024/04/13 01:34:13;;;;;;;29.30;20.10;;;;;;;9.88;77.77;99734.83;226773;1270;22583;-73
2024/04/13 01:39:15;;;;;;;28.00;19.80;;;;;;;9.79;77.94;99741.75;226751;1272;25289;-74
2024/04/13 01:44:17;;;;;;;27.20;18.40;;;;;;;9.70;78.22;99740.42;226699;1272;22523;-75
2024/04/13 01:49:19;;;;;;;25.50;18.60;;;;;;;9.63;78.37;99747.85;226806;1270;22531;-74
2024/04/13 01:54:21;;;;;;;30.80;19.10;;;;;;;9.59;78.54;99744.96;226747;1269;22550;-74
2024/04/13 01:59:22;;;;;;;27.60;17.60;;;;;;;9.55;78.70;99743.52;226753;1272;22542;-74
2024/04/13 02:04:24;;;;;;;26.20;18.00;;;;;;;9.55;78.77;99744.25;226746;1272;22532;-75
2024/04/13 02:09:26;;;;;;;27.70;16.50;;;;;;;9.55;78.94;99747.61;226718;1272;25414;-74
2024/04/13 02:14:28;;;;;;;23.80;16.10;;;;;;;9.54;78.92;99754.06;226694;1272;25345;-74
2024/04/13 02:19:29;;;;;;;24.40;16.20;;;;;;;9.53;79.06;99751.68;226734;1270;22543;-74
2024/04/13 02:24:32;;;;;;;21.90;16.10;;;;;;;9.51;78.98;99744.65;226807;1272;22547;-74
2024/04/13 02:29:33;;;;;;;20.60;15.30;;;;;;;9.49;79.23;99747.36;226783;1272;24247;-74
2024/04/13 02:34:35;;;;;;;20.40;16.00;;;;;;;9.47;79.27;99742.48;226783;1272;22818;-74
2024/04/13 02:39:37;;;;;;;19.60;14.70;;;;;;;9.46;79.24;99747.52;226932;1272;22538;-74
2024/04/13 02:44:39;;;;;;;22.30;16.00;;;;;;;9.45;79.30;99744.64;226735;1269;22553;-74
2024/04/13 02:49:41;;;;;;;25.50;16.80;;;;;;;9.45;79.20;99747.96;226797;1273;22928;-74
2024/04/13 02:54:43;;;;;;;20.40;15.90;;;;;;;9.45;79.25;99746.55;226756;1270;22538;-74
2024/04/13 02:59:44;;;;;;;22.30;15.50;;;;;;;9.45;79.24;99752.52;226738;1270;22538;-74
2024/04/13 03:04:50;;;;;;;20.90;15.00;;;;;;;9.45;79.40;99749.92;226747;1272;22548;-75
2024/04/13 03:09:52;;;;;;;21.80;15.50;;;;;;;9.45;79.46;99749.85;226962;1271;22542;-75
2024/04/13 03:14:54;;;;;;;20.30;14.90;;;;;;;9.45;79.43;99752.91;226736;1272;22531;-74
2024/04/13 03:19:55;;;;;;;20.30;15.00;;;;;;;9.45;79.51;99752.48;226726;1272;22534;-74
2024/04/13 03:24:57;;;;;;;23.60;15.70;;;;;;;9.46;79.65;99751.21;226722;1272;22610;-74
2024/04/13 03:30:00;;;;;;;20.10;14.90;;;;;;;9.45;79.43;99755.29;226709;1272;22697;-74
2024/04/13 03:35:03;;;;;;;22.60;14.60;;;;;;;9.47;79.72;99757.45;226678;1273;23312;-73
2024/04/13 03:40:05;;;;;;;23.20;16.20;;;;;;;9.51;79.77;99755.60;226779;1272;22653;-73
2024/04/13 03:45:07;;;;;;;20.40;14.70;;;;;;;9.56;80.01;99761.64;226836;1272;22549;-74
2024/04/13 03:50:10;;;;;;;19.10;14.30;;;;;;;9.59;79.81;99766.23;226735;1270;22558;-73
2024/04/13 03:55:11;;;;;;;24.80;15.00;;;;;;;9.63;79.97;99771.64;226798;1273;22535;-75
2024/04/13 04:00:13;;;;;;;20.40;13.90;;;;;;;9.67;79.83;99770.30;226773;1270;22552;-74
2024/04/13 04:05:15;;;;;;;19.30;13.60;;;;;;;9.72;79.79;99767.33;226788;1273;22562;-75
2024/04/13 04:10:17;;;;;;;19.70;14.10;;;;;;;9.75;79.59;99771.20;226729;1273;22531;-74
2024/04/13 04:15:19;;;;;;;21.10;14.40;;;;;;;9.79;79.71;99773.66;226767;1271;22798;-75
2024/04/13 04:20:21;;;;;;;19.40;12.70;;;;;;;9.83;79.70;99771.26;226727;1272;22548;-73
2024/04/13 04:25:24;;;;;;;18.30;12.50;;;;;;;9.89;79.57;99773.86;226753;1273;22902;-74
2024/04/13 04:30:26;;;;;;;17.40;12.60;;;;;;;9.95;79.74;99776.95;226849;1272;22562;-74
2024/04/13 04:35:27;;;;;;;14.00;11.30;;;;;;;10.04;79.57;99783.23;226723;1272;22554;-74
2024/04/13 04:40:29;;;;;;;15.60;11.30;;;;;;;10.15;79.35;99785.15;226795;1270;22535;-75
2024/04/13 04:45:31;;;;;;;14.10;10.10;;;;;;;10.30;79.28;99782.60;226751;1270;22588;-73
2024/04/13 04:50:34;;;;;;;16.30;10.60;;;;;;;10.45;79.03;99785.24;226820;1270;22542;-74
2024/04/13 04:55:35;;;;;;;14.30;9.20;;;;;;;10.59;78.69;99784.41;226811;1273;22544;-74
2024/04/13 05:00:37;;;;;;;11.00;8.70;;;;;;;10.75;78.43;99783.10;226805;1273;22555;-73
2024/04/13 05:05:41;;;;;;;13.40;9.20;;;;;;;10.90;78.29;99786.54;226859;1270;24871;-74
2024/04/13 05:10:43;;;;;;;11.70;8.90;;;;;;;11.04;77.89;99788.42;226842;1270;22546;-74
2024/04/13 05:15:45;;;;;;;13.00;8.90;;;;;;;11.14;77.75;99787.98;226808;1270;24909;-74
2024/04/13 05:20:46;;;;;;;12.60;9.10;;;;;;;11.22;77.35;99793.44;226781;1267;24280;-74
2024/04/13 05:25:49;;;;;;;12.90;9.30;;;;;;;11.31;77.49;99792.23;226764;1270;22536;-74
2024/04/13 05:30:56;;;;;;;13.30;8.90;;;;;;;11.43;77.53;99791.15;226764;1270;23035;-74
2024/04/13 05:35:59;;;;;;;13.30;9.30;;;;;;;11.53;77.12;99788.27;226763;1273;22549;-74
2024/04/13 05:41:05;;;;;;;12.70;8.40;;;;;;;11.65;77.10;99787.77;226841;1270;22539;-75
2024/04/13 05:46:07;;;;;;;11.10;7.80;;;;;;;11.85;77.04;99780.70;226822;1270;22525;-74
2024/04/13 05:51:09;;;;;;;10.70;7.30;;;;;;;12.08;76.86;99774.84;226811;1270;25323;-73
2024/04/13 05:56:11;;;;;;;10.00;7.20;;;;;;;12.36;76.79;99764.92;226789;1269;22775;-74
2024/04/13 06:01:13;;;;;;;11.20;7.90;;;;;;;12.69;76.88;99764.00;226819;1270;22641;-74
2024/04/13 06:06:15;;;;;;;9.80;7.10;;;;;;;13.04;76.70;99758.77;226798;1271;22562;-75
2024/04/13 06:11:17;;;;;;;10.10;6.70;;;;;;;13.45;76.73;99753.29;226790;1270;22546;-75
2024/04/13 06:16:19;;;;;;;9.40;6.70;;;;;;;13.84;76.42;99756.85;226836;1272;24923;-75
2024/04/13 06:21:20;;;;;;;11.70;6.80;;;;;;;14.18;75.77;99754.16;226775;1270;22547;-75
2024/04/13 06:26:22;;;;;;;10.60;7.40;;;;;;;14.47;74.96;99755.00;226823;1270;22548;-74
2024/04/13 06:31:24;;;;;;;87.80;67.80;;;;;;;14.70;74.78;99759.93;226801;1273;22691;-74
2024/04/13 06:36:26;;;;;;;9.30;6.40;;;;;;;14.85;74.76;99765.50;226805;1270;22536;-74
2024/04/13 06:41:28;;;;;;;7.50;5.80;;;;;;;14.98;74.49;99765.62;226798;1269;25237;-74
2024/04/13 06:46:30;;;;;;;6.60;5.50;;;;;;;15.16;74.24;99771.41;226828;1270;22522;-74
2024/04/13 06:51:32;;;;;;;7.50;4.80;;;;;;;15.37;73.91;99775.63;226798;1272;25320;-74
2024/04/13 06:56:34;;;;;;;6.50;5.60;;;;;;;15.50;73.66;99772.19;226982;1257;22523;-74
2024/04/13 07:01:36;;;;;;;6.80;5.50;;;;;;;15.70;73.61;99769.52;226913;1251;22512;-74
2024/04/13 07:06:37;;;;;;;7.10;5.20;;;;;;;15.88;73.24;99766.98;226998;1254;22539;-74
2024/04/13 07:11:39;;;;;;;9.30;6.30;;;;;;;16.05;72.95;99758.04;226895;1258;22526;-74
2024/04/13 07:16:41;;;;;;;8.40;5.80;;;;;;;16.25;72.78;99753.52;227077;1266;22538;-72
2024/04/13 07:21:43;;;;;;;7.70;5.70;;;;;;;16.49;72.70;99751.61;227202;1260;22917;-73
2024/04/13 07:26:45;;;;;;;7.60;5.00;;;;;;;16.70;72.17;99748.95;226995;1268;22561;-73
2024/04/13 07:31:47;;;;;;;14.80;4.60;;;;;;;16.85;71.78;99749.14;226913;1251;22542;-73
2024/04/13 07:36:49;;;;;;;4.60;4.20;;;;;;;17.01;71.47;99745.07;227026;1266;22574;-73
2024/04/13 07:41:54;;;;;;;8.40;4.20;;;;;;;17.18;71.17;99748.71;227165;1267;22547;-73
2024/04/13 07:46:55;;;;;;;5.40;3.50;;;;;;;17.34;70.78;99739.73;226835;1266;22575;-74
2024/04/13 07:51:59;;;;;;;4.70;3.20;;;;;;;17.50;70.47;99738.61;226737;1272;22587;-74
2024/04/13 07:57:01;;;;;;;6.40;3.40;;;;;;;17.63;69.77;99748.87;227023;1257;24330;-72
2024/04/13 08:02:03;;;;;;;5.30;3.00;;;;;;;17.73;69.28;99748.07;226880;1267;25443;-74
2024/04/13 08:07:05;;;;;;;4.50;3.20;;;;;;;17.87;68.75;99748.98;226911;1270;22542;-73
2024/04/13 08:12:09;;;;;;;5.50;3.30;;;;;;;18.11;68.38;99742.99;226886;1257;22556;-74
2024/04/13 08:17:13;;;;;;;7.30;3.90;;;;;;;18.43;67.92;99739.61;226609;1266;22537;-74
2024/04/13 08:22:15;;;;;;;5.40;4.20;;;;;;;18.64;67.14;99741.17;226665;1258;22632;-74
2024/04/13 08:27:16;;;;;;;6.80;5.10;;;;;;;18.89;66.50;99742.61;226765;1266;22524;-74
2024/04/13 08:32:18;;;;;;;5.60;4.60;;;;;;;19.18;65.48;99745.25;227075;1267;22545;-74
2024/04/13 08:37:20;;;;;;;7.40;4.60;;;;;;;19.35;64.93;99755.06;226748;1266;22539;-73
2024/04/13 08:42:38;;;;;;;6.00;4.50;;;;;;;19.44;64.37;99755.33;227166;1264;22535;-74
2024/04/13 08:47:42;;;;;;;5.00;4.10;;;;;;;19.52;64.18;99756.42;227092;1254;24274;-73
2024/04/13 08:52:45;;;;;;;6.00;3.60;;;;;;;19.51;63.89;99755.06;226950;1258;22620;-75
2024/04/13 08:57:47;;;;;;;5.50;2.90;;;;;;;19.66;63.92;99757.42;227156;1264;24255;-74
2024/04/13 09:02:55;;;;;;;4.50;3.60;;;;;;;19.80;63.49;99756.91;226912;1260;25253;-75
2024/04/13 09:07:58;;;;;;;3.90;3.60;;;;;;;19.81;63.17;99740.63;227009;1264;24008;-75
2024/04/13 09:12:59;;;;;;;4.50;4.00;;;;;;;19.78;63.08;99740.41;226920;1266;23455;-75
2024/04/13 09:18:02;;;;;;;6.50;4.30;;;;;;;19.84;62.86;99740.99;227106;1266;22544;-75
2024/04/13 09:23:05;;;;;;;4.80;3.90;;;;;;;20.00;62.43;99729.22;227063;1265;25327;-75
2024/04/13 09:28:07;;;;;;;5.30;4.40;;;;;;;20.37;62.58;99725.14;226952;1266;22538;-75
2024/04/13 09:33:10;;;;;;;6.10;4.50;;;;;;;20.65;61.56;99729.98;227026;1260;23023;-76
2024/04/13 09:38:15;;;;;;;5.40;3.80;;;;;;;20.70;61.11;99733.09;227112;1267;22550;-75
2024/04/13 09:43:21;;;;;;;6.60;4.30;;;;;;;20.64;60.35;99746.96;226934;1266;22546;-74
2024/04/13 09:48:24;;;;;;;9.60;6.90;;;;;;;20.66;60.25;99744.26;226891;1266;22536;-76
2024/04/13 09:53:26;;;;;;;5.10;4.30;;;;;;;20.79;59.92;99744.93;226885;1253;22627;-75
2024/04/13 09:58:29;;;;;;;6.80;5.40;;;;;;;20.80;59.17;99741.61;226920;1266;23649;-76
2024/04/13 10:03:31;;;;;;;6.50;5.90;;;;;;;20.62;58.89;99737.73;227152;1257;22543;-75
2024/04/13 10:08:34;;;;;;;10.40;5.90;;;;;;;20.42;58.58;99727.80;226652;1265;22677;-74
2024/04/13 10:13:44;;;;;;;7.50;6.20;;;;;;;20.11;58.89;99730.22;226752;1251;22552;-74
2024/04/13 10:18:47;;;;;;;6.90;6.20;;;;;;;19.99;59.36;99729.36;226609;1266;22923;-74
2024/04/13 10:23:50;;;;;;;8.30;5.30;;;;;;;19.90;59.38;99698.67;226836;1257;24340;-72
2024/04/13 10:29:00;;;;;;;5.40;4.50;;;;;;;19.76;59.53;99679.25;226815;1266;25427;-75
2024/04/13 10:34:02;;;;;;;4.90;4.10;;;;;;;19.99;59.75;99689.86;226829;1263;22669;-74
2024/04/13 10:39:05;;;;;;;7.20;3.90;;;;;;;20.32;59.05;99690.80;226421;1267;24225;-73
2024/04/13 10:44:09;;;;;;;4.90;3.00;;;;;;;20.63;58.67;99674.64;226730;1264;25295;-76
2024/04/13 10:49:11;;;;;;;4.80;4.10;;;;;;;21.00;58.17;99663.06;226764;1265;22545;-75
2024/04/13 10:54:17;;;;;;;4.50;3.40;;;;;;;21.35;57.85;99664.98;226600;1251;22566;-75
2024/04/13 10:59:19;;;;;;;5.30;3.50;;;;;;;21.57;56.57;99656.64;226781;1267;22565;-74
2024/04/13 11:04:20;;;;;;;5.90;3.60;;;;;;;21.73;56.58;99650.60;226513;1260;22524;-75
2024/04/13 11:09:23;;;;;;;7.20;4.30;;;;;;;21.99;56.13;99646.02;226645;1270;22531;-75
2024/04/13 11:14:26;;;;;;;6.40;3.80;;;;;;;22.33;55.39;99643.40;226886;1272;22575;-75
2024/04/13 11:19:28;;;;;;;3.90;2.90;;;;;;;22.56;55.24;99648.65;227311;1269;22555;-75
2024/04/13 11:24:30;;;;;;;5.00;3.90;;;;;;;22.77;55.16;99653.73;227080;1269;22540;-75
2024/04/13 11:29:36;;;;;;;5.20;3.20;;;;;;;22.89;54.67;99648.52;227092;1272;22575;-74
2024/04/13 11:34:38;;;;;;;4.80;4.30;;;;;;;22.90;54.49;99639.33;227202;1272;22847;-75
2024/04/13 11:39:41;;;;;;;4.10;3.70;;;;;;;22.93;54.59;99641.05;227223;1270;22550;-74
2024/04/13 11:44:44;;;;;;;5.70;4.40;;;;;;;22.87;54.15;99635.30;227267;1269;22715;-74
2024/04/13 11:49:46;;;;;;;4.50;4.00;;;;;;;22.61;53.82;99624.75;227231;1272;24269;-75
2024/04/13 11:54:48;;;;;;;4.90;4.40;;;;;;;22.24;53.77;99609.83;227359;1266;22553;-75
2024/04/13 11:59:50;;;;;;;4.70;3.50;;;;;;;21.94;54.06;99610.00;227334;1272;22577;-76
2024/04/13 12:04:52;;;;;;;5.10;2.70;;;;;;;21.84;54.38;99603.30;227415;1266;22622;-75
2024/04/13 12:09:54;;;;;;;4.00;2.60;;;;;;;21.83;54.30;99593.38;227218;1272;22544;-75
2024/04/13 12:14:56;;;;;;;3.40;2.30;;;;;;;21.96;54.27;99591.38;227362;1269;22534;-76
2024/04/13 12:20:00;;;;;;;6.80;2.20;;;;;;;22.15;53.61;99587.30;227353;1269;24896;-76
2024/04/13 12:25:03;;;;;;;3.00;2.50;;;;;;;22.25;52.93;99587.69;227171;1272;24157;-74
2024/04/13 12:30:07;;;;;;;2.80;2.50;;;;;;;22.35;52.82;99581.45;227259;1272;22536;-75
2024/04/13 12:35:10;;;;;;;3.60;2.60;;;;;;;22.41;52.65;99573.10;227389;1269;22584;-76
2024/04/13 12:40:14;;;;;;;2.80;2.30;;;;;;;22.52;52.85;99565.66;227395;1272;22590;-76
2024/04/13 12:45:16;;;;;;;2.50;2.20;;;;;;;22.58;52.43;99561.70;227163;1270;22598;-76
2024/04/13 12:50:18;;;;;;;6.40;2.60;;;;;;;22.60;51.41;99554.80;227347;1272;22535;-74
2024/04/13 12:55:19;;;;;;;2.90;2.20;;;;;;;22.59;51.28;99550.61;227161;1270;22560;-76
2024/04/13 13:00:21;;;;;;;3.00;2.20;;;;;;;22.65;51.14;99549.80;227338;1269;22543;-75
2024/04/13 13:05:23;;;;;;;2.90;2.30;;;;;;;22.70;50.88;99547.57;227391;1270;22562;-75
2024/04/13 13:10:25;;;;;;;4.90;2.60;;;;;;;22.84;51.18;99530.42;227331;1269;22550;-76
2024/04/13 13:15:28;;;;;;;4.10;2.20;;;;;;;22.88;50.45;99518.55;226961;1270;217588;-76
2024/04/13 13:20:30;;;;;;;3.00;2.50;;;;;;;22.81;50.00;99513.79;227359;1270;22539;-75
2024/04/13 13:25:31;;;;;;;2.30;1.80;;;;;;;22.79;50.68;99517.06;227355;1270;22535;-76
2024/04/13 13:30:40;;;;;;;2.90;2.20;;;;;;;22.97;51.30;99500.55;227340;1269;22596;-75
2024/04/13 13:35:41;;;;;;;4.50;2.60;;;;;;;23.03;51.05;99487.48;227407;1270;21800;-75
2024/04/13 13:40:45;;;;;;;2.60;2.30;;;;;;;23.06;50.64;99492.63;227179;1269;22549;-76
2024/04/13 13:45:46;;;;;;;3.10;2.50;;;;;;;22.95;50.74;99486.54;227195;1266;22574;-75
2024/04/13 13:50:48;;;;;;;3.00;2.50;;;;;;;22.94;50.58;99476.59;227389;1270;22564;-75
2024/04/13 13:55:50;;;;;;;3.40;2.60;;;;;;;22.93;51.01;99470.06;227193;1267;24232;-76
2024/04/13 14:00:54;;;;;;;4.30;2.80;;;;;;;23.05;51.36;99474.29;227369;1262;22527;-75
2024/04/13 14:06:05;;;;;;;2.50;2.30;;;;;;;23.13;51.38;99473.98;227329;1266;22603;-75
2024/04/13 14:11:07;;;;;;;3.90;2.60;;;;;;;23.17;51.62;99472.71;227341;1266;22607;-75
2024/04/13 14:16:09;;;;;;;3.00;2.30;;;;;;;23.18;51.57;99470.02;227318;1272;22606;-75
2024/04/13 14:21:11;;;;;;;2.70;2.50;;;;;;;23.19;51.64;99464.26;227103;1270;22559;-75
2024/04/13 14:26:13;;;;;;;3.30;2.60;;;;;;;23.17;51.20;99463.48;227443;1270;25455;-75
2024/04/13 14:31:14;;;;;;;3.30;2.60;;;;;;;23.12;51.04;99462.21;227186;1270;25513;-74
2024/04/13 14:36:16;;;;;;;2.80;2.60;;;;;;;23.04;51.20;99454.45;227318;1268;22582;-76
2024/04/13 14:41:18;;;;;;;3.60;2.50;;;;;;;23.04;51.41;99456.98;227385;1268;22586;-75
2024/04/13 14:46:20;;;;;;;4.40;2.20;;;;;;;23.02;50.85;99451.46;227372;1269;23266;-75
2024/04/13 14:51:22;;;;;;;4.90;2.70;;;;;;;22.92;50.74;99447.95;227341;1267;22652;-75
2024/04/13 14:56:23;;;;;;;2.60;2.40;;;;;;;22.78;50.80;99447.14;227305;1272;22535;-75
2024/04/13 15:01:25;;;;;;;3.90;2.50;;;;;;;22.66;51.07;99447.06;227187;1271;22941;-75
2024/04/13 15:06:27;;;;;;;2.70;2.50;;;;;;;22.72;51.48;99449.56;227110;1267;23145;-76
2024/04/13 15:11:29;;;;;;;3.60;2.90;;;;;;;22.76;51.44;99444.98;227302;1269;22563;-75
2024/04/13 15:16:31;;;;;;;2.70;2.30;;;;;;;22.72;51.48;99439.88;227169;1263;22584;-74
2024/04/13 15:21:33;;;;;;;3.60;2.40;;;;;;;22.62;51.41;99433.44;227143;1248;22573;-74
2024/04/13 15:26:35;;;;;;;3.10;2.80;;;;;;;22.48;51.53;99433.80;227330;1270;22591;-75
2024/04/13 15:31:37;;;;;;;3.40;2.80;;;;;;;22.36;51.60;99435.77;227360;1267;23019;-75
2024/04/13 15:36:39;;;;;;;4.60;3.40;;;;;;;22.19;51.98;99437.54;227217;1272;22969;-75
2024/04/13 15:41:41;;;;;;;3.30;2.90;;;;;;;22.10;52.28;99441.19;227310;1267;22544;-75
2024/04/13 15:46:43;;;;;;;7.40;6.80;;;;;;;22.05;52.46;99430.23;227278;1269;22545;-75
2024/04/13 15:51:45;;;;;;;4.80;3.40;;;;;;;22.03;52.71;99427.50;227302;1269;22545;-75
2024/04/13 15:56:47;;;;;;;3.40;3.10;;;;;;;21.90;52.77;99426.27;227216;1272;22586;-75
2024/04/13 16:01:48;;;;;;;3.20;2.70;;;;;;;21.71;52.81;99411.23;227308;1269;22665;-75
2024/04/13 16:06:53;;;;;;;5.30;2.70;;;;;;;21.52;53.01;99400.20;227352;1269;25304;-74
2024/04/13 16:11:55;;;;;;;4.20;2.80;;;;;;;21.37;53.42;99399.67;227300;1272;24254;-74
2024/04/13 16:16:57;;;;;;;5.90;3.60;;;;;;;21.30;53.76;99397.56;227325;1270;22552;-75
2024/04/13 16:22:04;;;;;;;3.30;3.00;;;;;;;21.27;53.84;99401.06;227303;1266;23046;-75
2024/04/13 16:27:07;;;;;;;4.60;2.90;;;;;;;21.19;54.14;99405.71;227351;1269;22550;-75
2024/04/13 16:32:10;;;;;;;4.10;2.60;;;;;;;21.13;54.29;99405.23;227299;1272;22910;-74
2024/04/13 16:37:12;;;;;;;5.20;2.90;;;;;;;21.05;54.47;99402.15;227346;1269;22522;-75
2024/04/13 16:42:14;;;;;;;4.30;3.00;;;;;;;20.95;54.59;99401.73;227152;1272;22578;-75
2024/04/13 16:47:16;;;;;;;3.80;3.00;;;;;;;20.82;54.85;99397.78;227326;1272;22540;-74
2024/04/13 16:52:18;;;;;;;6.20;2.90;;;;;;;20.69;54.81;99397.64;227342;1269;22562;-75
2024/04/13 16:57:20;;;;;;;4.10;2.40;;;;;;;20.55;54.91;99392.40;227201;1270;22533;-75
2024/04/13 17:02:21;;;;;;;3.50;2.80;;;;;;;20.38;55.16;99384.79;227122;1270;22534;-75
2024/04/13 17:07:24;;;;;;;4.60;3.00;;;;;;;20.15;55.58;99388.67;227339;1270;22543;-78
2024/04/13 17:12:26;;;;;;;6.30;3.70;;;;;;;19.89;56.05;99386.92;227376;1270;22558;-76
2024/04/13 17:17:27;;;;;;;6.20;3.80;;;;;;;19.66;56.62;99390.88;227313;1269;22556;-75
2024/04/13 17:22:29;;;;;;;7.20;4.10;;;;;;;19.47;57.04;99384.29;227360;1270;22545;-74
2024/04/13 17:27:31;;;;;;;6.00;4.20;;;;;;;19.26;57.40;99379.19;227205;1271;25224;-75
2024/04/13 17:32:33;;;;;;;6.20;3.80;;;;;;;19.03;57.78;99379.58;227275;1270;22556;-75
2024/04/13 17:37:35;;;;;;;7.30;4.50;;;;;;;18.80;58.19;99387.17;227251;1269;22531;-75
2024/04/13 17:42:37;;;;;;;7.30;5.20;;;;;;;18.56;58.69;99385.27;227172;1272;22557;-75
2024/04/13 17:47:38;;;;;;;5.80;5.20;;;;;;;18.33;58.95;99386.32;227305;1268;22538;-74
2024/04/13 17:52:40;;;;;;;6.80;5.40;;;;;;;18.11;59.32;99382.94;227246;1272;22536;-75
2024/04/13 17:57:43;;;;;;;7.60;6.00;;;;;;;17.91;59.73;99380.51;227355;1270;22531;-75
2024/04/13 18:02:45;;;;;;;10.20;7.70;;;;;;;17.70;60.13;99384.32;227278;1269;22542;-75
2024/04/13 18:07:47;;;;;;;9.20;6.70;;;;;;;17.49;60.66;99382.34;227362;1259;22531;-75
2024/04/13 18:12:49;;;;;;;9.00;6.50;;;;;;;17.30;61.01;99384.27;227321;1269;22558;-75
2024/04/13 18:17:51;;;;;;;8.10;6.50;;;;;;;17.13;61.44;99381.35;227268;1270;22556;-75
2024/04/13 18:22:53;;;;;;;8.50;6.90;;;;;;;16.97;61.72;99380.52;227293;1272;22539;-74
2024/04/13 18:27:55;;;;;;;12.40;6.80;;;;;;;16.81;62.05;99383.92;227121;1272;22553;-74
2024/04/13 18:32:57;;;;;;;9.70;7.20;;;;;;;16.64;62.44;99389.33;227299;1272;22550;-75
2024/04/13 18:37:59;;;;;;;12.80;10.40;;;;;;;16.47;62.97;99388.73;227289;1272;22549;-76
2024/04/13 18:43:00;;;;;;;14.10;12.20;;;;;;;16.33;63.29;99389.52;227315;1272;22533;-75
2024/04/13 18:48:02;;;;;;;18.20;15.30;;;;;;;16.18;63.71;99393.40;227186;1272;22553;-75
2024/04/13 18:53:05;;;;;;;22.00;18.00;;;;;;;16.06;64.27;99392.28;227170;1272;26001;-76
2024/04/13 18:58:06;;;;;;;22.30;17.30;;;;;;;15.95;64.65;99395.18;227282;1270;22575;-75
2024/04/13 19:03:08;;;;;;;24.30;16.90;;;;;;;15.84;64.98;99391.34;227283;1269;22551;-74
2024/04/13 19:08:10;;;;;;;16.10;13.50;;;;;;;15.74;65.41;99395.61;227338;1269;22532;-75
2024/04/13 19:13:12;;;;;;;14.90;11.90;;;;;;;15.63;65.80;99385.03;227282;1269;22535;-75
2024/04/13 19:18:14;;;;;;;17.40;12.20;;;;;;;15.52;66.18;99374.90;227067;1269;22542;-74
2024/04/13 19:23:16;;;;;;;15.30;12.90;;;;;;;15.41;66.40;99373.13;227341;1270;22570;-75
2024/04/13 19:28:18;;;;;;;15.60;12.70;;;;;;;15.30;67.02;99375.13;227323;1270;22544;-75
2024/04/13 19:33:20;;;;;;;15.70;12.90;;;;;;;15.20;67.30;99376.55;227312;1272;22529;-74
2024/04/13 19:38:22;;;;;;;16.80;13.70;;;;;;;15.09;67.54;99378.47;227220;1271;22536;-74
2024/04/13 19:43:24;;;;;;;19.20;14.10;;;;;;;15.00;67.72;99375.45;227298;1269;22732;-74
2024/04/13 19:48:27;;;;;;;19.80;14.70;;;;;;;14.93;68.22;99368.16;227391;1269;22555;-76
2024/04/13 19:53:29;;;;;;;17.30;15.30;;;;;;;14.87;68.16;99362.07;227284;1272;22552;-75
2024/04/13 19:58:31;;;;;;;19.70;15.20;;;;;;;14.80;68.51;99363.02;227285;1270;24399;-75
2024/04/13 20:03:33;;;;;;;16.90;14.80;;;;;;;14.73;68.63;99360.73;227330;1272;22557;-75
2024/04/13 20:08:36;;;;;;;18.90;14.80;;;;;;;14.67;68.75;99361.70;227292;1269;22555;-75
2024/04/13 20:13:38;;;;;;;17.90;15.70;;;;;;;14.61;69.07;99357.21;227124;1272;22545;-76
2024/04/13 20:18:40;;;;;;;22.40;16.60;;;;;;;14.56;69.19;99350.27;227309;1270;22542;-76
2024/04/13 20:23:42;;;;;;;21.50;17.60;;;;;;;14.52;69.66;99344.52;227339;1270;24219;-75
2024/04/13 20:28:44;;;;;;;23.40;19.00;;;;;;;14.49;69.85;99343.14;227321;1267;22640;-75
2024/04/13 20:33:47;;;;;;;23.70;18.40;;;;;;;14.46;69.86;99337.08;227294;1269;22554;-75
2024/04/13 20:38:48;;;;;;;21.70;18.30;;;;;;;14.42;70.11;99333.40;227368;1268;22550;-75
2024/04/13 20:43:53;;;;;;;28.90;22.00;;;;;;;14.35;70.05;99331.58;227348;1265;22576;-75
2024/04/13 20:48:55;;;;;;;28.30;21.70;;;;;;;14.26;70.26;99320.36;227391;1272;22579;-75
2024/04/13 20:53:57;;;;;;;33.60;26.10;;;;;;;14.19;70.48;99313.71;227281;1270;24260;-75
2024/04/13 20:58:58;;;;;;;27.30;21.20;;;;;;;14.12;70.75;99310.16;227207;1272;22542;-76
2024/04/13 21:04:00;;;;;;;29.40;21.20;;;;;;;14.03;71.01;99314.54;227289;1270;22541;-74
2024/04/13 21:09:05;;;;;;;29.20;22.20;;;;;;;13.95;71.24;99316.86;227361;1272;22538;-74
2024/04/13 21:14:07;;;;;;;25.90;21.80;;;;;;;13.87;71.23;99310.89;227173;1272;22548;-74
2024/04/13 21:19:09;;;;;;;24.70;20.90;;;;;;;13.81;71.35;99302.48;227403;1264;22535;-75
2024/04/13 21:24:11;;;;;;;26.80;21.30;;;;;;;13.76;71.65;99297.15;227316;1272;22536;-75
2024/04/13 21:29:13;;;;;;;25.20;20.10;;;;;;;13.70;72.11;99291.67;227364;1270;25275;-76
2024/04/13 21:34:18;;;;;;;27.50;22.00;;;;;;;13.64;72.17;99285.71;227328;1269;22540;-75
2024/04/13 21:39:20;;;;;;;28.60;22.90;;;;;;;13.59;72.58;99278.09;227269;1270;22546;-77
2024/04/13 21:44:25;;;;;;;31.40;23.70;;;;;;;13.52;72.88;99273.83;227291;1272;22539;-75
2024/04/13 21:49:27;;;;;;;32.60;24.00;;;;;;;13.45;73.07;99271.35;227330;1272;22534;-75
2024/04/13 21:54:29;;;;;;;32.00;24.90;;;;;;;13.39;73.21;99271.58;227346;1270;22543;-76
2024/04/13 21:59:31;;;;;;;31.30;24.50;;;;;;;13.33;73.69;99261.88;227338;1272;25408;-73
2024/04/13 22:04:33;;;;;;;30.40;24.40;;;;;;;13.27;73.58;99261.05;227133;1272;22542;-75
2024/04/13 22:09:36;;;;;;;30.30;23.60;;;;;;;13.21;73.60;99264.64;227307;1272;22536;-74
2024/04/13 22:14:38;;;;;;;32.40;23.80;;;;;;;13.16;73.60;99264.03;227331;1270;22813;-74
2024/04/13 22:19:40;;;;;;;29.90;23.70;;;;;;;13.11;73.98;99254.03;227323;1272;22541;-74
2024/04/13 22:24:44;;;;;;;31.10;24.10;;;;;;;13.05;74.20;99246.36;227268;1270;22553;-74
2024/04/13 22:29:46;;;;;;;28.30;22.80;;;;;;;12.98;74.41;99236.19;227260;1272;24267;-75
2024/04/13 22:34:48;;;;;;;27.10;22.30;;;;;;;12.93;74.60;99229.98;227325;1272;22555;-75
2024/04/13 22:39:50;;;;;;;25.00;21.30;;;;;;;12.90;74.74;99234.13;227237;1272;23011;-74
2024/04/13 22:44:52;;;;;;;23.80;20.00;;;;;;;12.87;74.69;99231.98;227358;1272;22744;-75
2024/04/13 22:49:54;;;;;;;24.20;20.70;;;;;;;12.85;74.97;99226.57;227275;1272;22538;-75
2024/04/13 22:54:55;;;;;;;24.90;20.70;;;;;;;12.81;75.07;99212.34;227330;1269;22549;-74
2024/04/13 22:59:57;;;;;;;24.60;21.30;;;;;;;12.78;74.94;99206.27;227379;1270;22526;-73
2024/04/13 23:04:59;;;;;;;25.80;20.30;;;;;;;12.73;75.12;99199.93;227378;1260;22532;-75
2024/04/13 23:10:04;;;;;;;24.00;20.70;;;;;;;12.69;75.30;99197.64;227286;1263;22628;-74
2024/04/13 23:15:07;;;;;;;21.90;19.40;;;;;;;12.66;75.49;99197.85;227124;1272;22534;-75